Map

Track Data

SID SEASON NUMBER BASIN SUBBASIN NAME ISO_TIME NATURE LAT LON WMO_WIND WMO_PRES WMO_AGENCY TRACK_TYPE DIST2LAND LANDFALL IFLAG USA_AGENCY USA_ATCF_ID USA_LAT USA_LON USA_RECORD USA_STATUS USA_WIND USA_PRES USA_SSHS USA_R34_NE USA_R34_SE USA_R34_SW USA_R34_NW USA_R50_NE USA_R50_SE USA_R50_SW USA_R50_NW USA_R64_NE USA_R64_SE USA_R64_SW USA_R64_NW USA_POCI USA_ROCI USA_RMW USA_EYE TOKYO_LAT TOKYO_LON TOKYO_GRADE TOKYO_WIND TOKYO_PRES TOKYO_R50_DIR TOKYO_R50_LONG TOKYO_R50_SHORT TOKYO_R30_DIR TOKYO_R30_LONG TOKYO_R30_SHORT TOKYO_LAND CMA_LAT CMA_LON CMA_CAT CMA_WIND CMA_PRES HKO_LAT HKO_LON HKO_CAT HKO_WIND HKO_PRES NEWDELHI_LAT NEWDELHI_LON NEWDELHI_GRADE NEWDELHI_WIND NEWDELHI_PRES NEWDELHI_CI NEWDELHI_DP NEWDELHI_POCI REUNION_LAT REUNION_LON REUNION_TYPE REUNION_WIND REUNION_PRES REUNION_TNUM REUNION_CI REUNION_RMW REUNION_R34_NE REUNION_R34_SE REUNION_R34_SW REUNION_R34_NW REUNION_R50_NE REUNION_R50_SE REUNION_R50_SW REUNION_R50_NW REUNION_R64_NE REUNION_R64_SE REUNION_R64_SW REUNION_R64_NW BOM_LAT BOM_LON BOM_TYPE BOM_WIND BOM_PRES BOM_TNUM BOM_CI BOM_RMW BOM_R34_NE BOM_R34_SE BOM_R34_SW BOM_R34_NW BOM_R50_NE BOM_R50_SE BOM_R50_SW BOM_R50_NW BOM_R64_NE BOM_R64_SE BOM_R64_SW BOM_R64_NW BOM_ROCI BOM_POCI BOM_EYE BOM_POS_METHOD BOM_PRES_METHOD NADI_LAT NADI_LON NADI_CAT NADI_WIND NADI_PRES WELLINGTON_LAT WELLINGTON_LON WELLINGTON_WIND WELLINGTON_PRES DS824_LAT DS824_LON DS824_STAGE DS824_WIND DS824_PRES TD9636_LAT TD9636_LON TD9636_STAGE TD9636_WIND TD9636_PRES TD9635_LAT TD9635_LON TD9635_WIND TD9635_PRES TD9635_ROCI NEUMANN_LAT NEUMANN_LON NEUMANN_CLASS NEUMANN_WIND NEUMANN_PRES MLC_LAT MLC_LON MLC_CLASS MLC_WIND MLC_PRES USA_GUST BOM_GUST BOM_GUST_PER REUNION_GUST REUNION_GUST_PER USA_SEAHGT USA_SEARAD_NE USA_SEARAD_SE USA_SEARAD_SW USA_SEARAD_NW STORM_SPEED STORM_DIR
1897195N25088 1897 17 NI BB NOT_NAMED 1897-07-14 00:00:00 TS 24.5000 88.1000 main 0 0 _________O____ -1 24.5000 88.1000 TC 30 5 268
1897195N25088 1897 17 NI BB NOT_NAMED 1897-07-14 03:00:00 TS 24.4935 87.8350 main 0 0 _________PO___ -1 24.4902 87.7024 TC 30 24.5000 88.1000 1 6 271
1897195N25088 1897 17 NI BB NOT_NAMED 1897-07-14 06:00:00 TS 24.5086 87.4526 main 0 0 _________OP___ -1 24.5000 87.3000 TC 30 24.5214 87.6814 1 7 274
1897195N25088 1897 17 NI BB NOT_NAMED 1897-07-14 09:00:00 TS 24.5430 87.0544 main 0 0 _________PP___ -1 24.5425 86.8926 TC 30 24.5438 87.2701 1 7 276
1897195N25088 1897 17 NI BB NOT_NAMED 1897-07-14 12:00:00 TS 24.5846 86.6869 main 0 0 _________OP___ -1 24.6000 86.5000 TC 30 24.5692 86.8738 1 7 277
1897195N25088 1897 17 NI BB NOT_NAMED 1897-07-14 15:00:00 TS 24.6249 86.3212 main 0 0 _________PO___ -1 24.6499 86.1425 TC 30 24.6000 86.5000 1 7 277
1897195N25088 1897 17 NI BB NOT_NAMED 1897-07-14 18:00:00 TS 24.6690 85.9759 main 0 0 _________OP___ -1 24.7000 85.8000 TC 30 24.6380 86.1517 1 6 278
1897195N25088 1897 17 NI BB NOT_NAMED 1897-07-14 21:00:00 TS 24.7169 85.6398 main 0 0 _________PP___ -1 24.7498 85.4650 TC 30 24.6840 85.8148 1 6 279
1897195N25088 1897 17 NI BB NOT_NAMED 1897-07-15 00:00:00 TS 24.7690 85.2852 main 0 0 _________OP___ -1 24.8000 85.1000 TC 30 24.7380 85.4704 1 7 279
1897195N25088 1897 17 NI BB NOT_NAMED 1897-07-15 03:00:00 TS 24.8212 84.8824 main 0 0 _________PO___ -1 24.8425 84.6649 TC 30 24.8000 85.1000 1 8 279
1897195N25088 1897 17 NI BB NOT_NAMED 1897-07-15 06:00:00 TS 24.8839 84.4394 main 0 0 _________OP___ -1 24.9000 84.2000 TC 30 24.8678 84.6788 1 8 280
1897195N25088 1897 17 NI BB NOT_NAMED 1897-07-15 09:00:00 TS 24.9674 83.9900 main 0 0 _________PP___ -1 24.9924 83.7500 TC 30 24.9425 84.2300 1 8 282
1897195N25088 1897 17 NI BB NOT_NAMED 1897-07-15 12:00:00 TS 25.0604 83.5331 main 0 0 _________OP___ -1 25.1000 83.3000 TC 30 25.0209 83.7662 1 8 283
1897195N25088 1897 17 NI BB NOT_NAMED 1897-07-15 15:00:00 TS 25.1537 83.0750 main 0 0 _________PO___ -1 25.2074 82.8500 TC 30 25.1000 83.3000 1 9 282
1897195N25088 1897 17 NI BB NOT_NAMED 1897-07-15 18:00:00 TS 25.2417 82.6048 main 0 0 _________OP___ -1 25.3000 82.4000 TC 30 25.1834 82.8096 1 9 280
1897195N25088 1897 17 NI BB NOT_NAMED 1897-07-15 21:00:00 TS 25.3116 82.1189 main 0 0 _________PP___ -1 25.3576 81.9124 TC 30 25.2655 82.3253 1 8 279
1897195N25088 1897 17 NI BB NOT_NAMED 1897-07-16 00:00:00 TS 25.3699 81.6892 main 0 0 _________OP___ -1 25.4000 81.5000 TC 30 25.3398 81.8783 1 7 280
1897195N25088 1897 17 NI BB NOT_NAMED 1897-07-16 03:00:00 TS 25.4286 81.3812 main 0 0 _________PO___ -1 25.4573 81.2625 TC 30 25.4000 81.5000 1 5 282
1897195N25088 1897 17 NI BB NOT_NAMED 1897-07-16 06:00:00 TS 25.4713 81.1660 main 0 0 _________OP___ -1 25.5000 81.1000 TC 30 25.4426 81.2319 1 4 279
1897195N25088 1897 17 NI BB NOT_NAMED 1897-07-16 09:00:00 TS 25.4895 80.9661 main 0 0 _________PP___ -1 25.5075 80.9000 TC 30 25.4714 81.0322 1 3 274
1897195N25088 1897 17 NI BB NOT_NAMED 1897-07-16 12:00:00 TS 25.4948 80.7832 main 0 0 _________OP___ -1 25.5000 80.7000 TC 30 25.4897 80.8664 1 3 272
1897195N25088 1897 17 NI BB NOT_NAMED 1897-07-16 15:00:00 TS 25.5000 80.6037 main 0 0 _________PO___ -1 25.4999 80.5075 TC 30 25.5000 80.7000 1 4 271
1897195N25088 1897 17 NI BB NOT_NAMED 1897-07-16 18:00:00 TS 25.5035 80.3931 main 0 0 _________OP___ -1 25.5000 80.3000 TC 30 25.5071 80.4862 1 4 271
1897195N25088 1897 17 NI BB NOT_NAMED 1897-07-16 21:00:00 TS 25.5037 80.1650 main 0 0 _________PP___ -1 25.5000 80.0650 TC 30 25.5074 80.2649 1 4 270
1897195N25088 1897 17 NI BB NOT_NAMED 1897-07-17 00:00:00 TS 25.5020 79.9181 main 0 0 _________OP___ -1 25.5000 79.8000 TC 30 25.5039 80.0362 1 5 270
1897195N25088 1897 17 NI BB NOT_NAMED 1897-07-17 03:00:00 TS 25.5000 79.6463 main 0 0 _________PO___ -1 25.5001 79.4925 TC 30 25.5000 79.8000 1 5 270
1897195N25088 1897 17 NI BB NOT_NAMED 1897-07-17 06:00:00 TS 25.5000 79.3786 main 0 0 _________OP___ -1 25.5000 79.2000 TC 30 25.4999 79.5572 1 4 270
1897195N25088 1897 17 NI BB NOT_NAMED 1897-07-17 09:00:00 TS 25.4999 79.1500 main 0 0 _________PP___ -1 25.4999 78.9925 TC 30 25.4999 79.3075 1 4 270
1897195N25088 1897 17 NI BB NOT_NAMED 1897-07-17 12:00:00 TS 25.5000 78.9270 main 0 0 _________OP___ -1 25.5000 78.8000 TC 30 25.4999 79.0541 1 4 270
1897195N25088 1897 17 NI BB NOT_NAMED 1897-07-17 15:00:00 TS 25.5000 78.6788 main 0 0 _________PO___ -1 25.5000 78.5575 TC 30 25.5000 78.8000 1 4 270
1897195N25088 1897 17 NI BB NOT_NAMED 1897-07-17 18:00:00 TS 25.5001 78.4416 main 0 0 _________OP___ -1 25.5000 78.3000 TC 30 25.5002 78.5478 1 4 270
1897195N25088 1897 17 NI BB NOT_NAMED 1897-07-17 21:00:00 TS 25.5002 78.1975 main 0 0 _________PP___ -1 25.5001 78.0475 TC 30 25.5003 78.2975 1 4 270
1897195N25088 1897 17 NI AS NOT_NAMED 1897-07-18 00:00:00 TS 25.5002 77.9656 main 0 0 _________OP___ -1 25.5000 77.8000 TC 30 25.5003 78.0484 1 4 270
1897195N25088 1897 17 NI AS NOT_NAMED 1897-07-18 03:00:00 NR 25.5000 77.8000 main 0 __________O___ -1 TC 25.5000 77.8000 1 3 270

About IBTrACS Database

This database is a web-friendly format of International Best Track Archive for Climate Stewardship (IBTrACS), a global best track data archive curated by NOAA dating back to 1842.

Updated: 2021-12-03